Mound, TX (76558)

4:40 AM CST on February 06, 2016 (GMT -0600)
GATESVILLE, TX (12 Miles SE) | | Change Station
CLOSE
Current Station
Personal Weather Station
Location: Leon Junction, TX
Elevation: 760 ft
Nearby Weather Stations

Elev 760 ft 31.34 °N, 97.57 °W | Updated 1 second ago

Clear
Clear
43.8 °F
Feels Like 44 °F
N
0.0
Wind Variable Wind from West
Gusts 8.0 mph

Today
High -- | Low -- °F
--% Chance of Precip.
Yesterday
High -- | Low -- °F
Precip. -- in
Pressure 30.24 in
Visibility 10.0 miles
Clouds Clear
Windchill 44 °F
Dew Point 28 °F
Humidity 53%
Rainfall 0.00 in
Snow Depth Not available.
7:19 AM 6:09 PM
Waning Crescent, 6% visible
METAR KHLR 060958Z AUTO 27010KT 10SM CLR 07/M05 A3024 RMK AO2 SLP239 T00701050
Pressure 30.24 in
Visibility 10.0 miles
Clouds Clear
Windchill 44 °F
Dew Point 28 °F
Humidity 53%
Rainfall 0.00 in
Snow Depth Not available.
7:19 AM 6:09 PM
Waning Crescent, 6% visible
METAR KHLR 060958Z AUTO 27010KT 10SM CLR 07/M05 A3024 RMK AO2 SLP239 T00701050

10-Day Weather Forecast

Almanac

Astronomy

Feb. 06, 2016 Rise Set
Actual Time
Civil Twilight
Nautical Twilight
Astronomical Twilight
Moon
Length of Visible Light
Length of Day
Tomorrow will be .
, % of the Moon is Illuminated

Today's Extremes

State Highs State Lows

Community

WunderPhotos

Upload Photos

1,890,933 photos uploaded!

WunderBlog® & News

Nearby

Air Quality

  Air Quality AQ Index Pollutant
Not available.

Snow Depth

Station Depth Elevation

Earthquake Activity

City Distance Mag. Time & Date
Minimum magnitude displayed is 2.5.

Coastal Water Temperatures

Place Temperature

Stations

Nearby Weather Stations

Station Location Temp. Windchill Dew Point Humidity Wind Precip. Elev Updated Type
                   

Watches & Warnings

There are currently no watches in effect.